sensor_id;sensor_type;location;lat;lon;timestamp;P1;durP1;ratioP1;P2;durP2;ratioP2
49678;SDS011;35570;48.218;16.326;2023-06-10T00:02:08;5.05;;;3.60;;
49678;SDS011;35570;48.218;16.326;2023-06-10T00:04:35;5.43;;;4.00;;
49678;SDS011;35570;48.218;16.326;2023-06-10T00:07:04;4.25;;;3.80;;
49678;SDS011;35570;48.218;16.326;2023-06-10T00:09:33;5.43;;;3.55;;
49678;SDS011;35570;48.218;16.326;2023-06-10T00:12:06;6.95;;;3.70;;
49678;SDS011;35570;48.218;16.326;2023-06-10T00:14:38;5.30;;;3.85;;
49678;SDS011;35570;48.218;16.326;2023-06-10T00:17:05;5.95;;;3.70;;
49678;SDS011;35570;48.218;16.326;2023-06-10T00:19:34;4.28;;;3.88;;
49678;SDS011;35570;48.218;16.326;2023-06-10T00:22:00;4.15;;;3.75;;
49678;SDS011;35570;48.218;16.326;2023-06-10T00:24:26;4.28;;;3.92;;
49678;SDS011;35570;48.218;16.326;2023-06-10T00:26:51;3.83;;;3.53;;
49678;SDS011;35570;48.218;16.326;2023-06-10T00:29:17;4.43;;;4.03;;
49678;SDS011;35570;48.218;16.326;2023-06-10T00:31:44;4.07;;;3.63;;
49678;SDS011;35570;48.218;16.326;2023-06-10T00:34:11;4.40;;;4.00;;
49678;SDS011;35570;48.218;16.326;2023-06-10T00:36:37;4.80;;;4.13;;
49678;SDS011;35570;48.218;16.326;2023-06-10T00:39:03;7.50;;;4.78;;
49678;SDS011;35570;48.218;16.326;2023-06-10T00:41:32;5.47;;;4.50;;
49678;SDS011;35570;48.218;16.326;2023-06-10T00:43:59;5.60;;;4.25;;
49678;SDS011;35570;48.218;16.326;2023-06-10T00:46:24;5.85;;;4.10;;
49678;SDS011;35570;48.218;16.326;2023-06-10T00:48:51;6.32;;;3.80;;
49678;SDS011;35570;48.218;16.326;2023-06-10T00:51:17;5.22;;;4.20;;
49678;SDS011;35570;48.218;16.326;2023-06-10T00:53:44;5.38;;;3.78;;
49678;SDS011;35570;48.218;16.326;2023-06-10T00:56:10;4.70;;;4.30;;
49678;SDS011;35570;48.218;16.326;2023-06-10T00:58:36;4.70;;;4.28;;
49678;SDS011;35570;48.218;16.326;2023-06-10T01:01:02;6.22;;;4.43;;
49678;SDS011;35570;48.218;16.326;2023-06-10T01:03:29;6.22;;;4.13;;
49678;SDS011;35570;48.218;16.326;2023-06-10T01:06:00;4.53;;;3.90;;
49678;SDS011;35570;48.218;16.326;2023-06-10T01:08:45;5.55;;;4.30;;
49678;SDS011;35570;48.218;16.326;2023-06-10T01:11:31;4.78;;;4.05;;
49678;SDS011;35570;48.218;16.326;2023-06-10T01:14:01;4.55;;;4.15;;
49678;SDS011;35570;48.218;16.326;2023-06-10T01:16:30;4.55;;;4.10;;
49678;SDS011;35570;48.218;16.326;2023-06-10T01:18:56;5.00;;;4.50;;
49678;SDS011;35570;48.218;16.326;2023-06-10T01:21:22;4.55;;;4.15;;
49678;SDS011;35570;48.218;16.326;2023-06-10T01:23:49;5.30;;;4.47;;
49678;SDS011;35570;48.218;16.326;2023-06-10T01:26:16;5.47;;;4.15;;
49678;SDS011;35570;48.218;16.326;2023-06-10T01:34:06;5.45;;;4.70;;
49678;SDS011;35570;48.218;16.326;2023-06-10T01:36:35;4.35;;;3.95;;
49678;SDS011;35570;48.218;16.326;2023-06-10T01:39:02;5.50;;;5.00;;
49678;SDS011;35570;48.218;16.326;2023-06-10T01:41:29;6.10;;;4.50;;
49678;SDS011;35570;48.218;16.326;2023-06-10T01:43:56;5.65;;;4.75;;
49678;SDS011;35570;48.218;16.326;2023-06-10T01:46:22;6.97;;;5.18;;
49678;SDS011;35570;48.218;16.326;2023-06-10T01:48:48;5.00;;;4.50;;
49678;SDS011;35570;48.218;16.326;2023-06-10T01:51:13;5.65;;;4.90;;
49678;SDS011;35570;48.218;16.326;2023-06-10T01:53:39;5.68;;;5.07;;
49678;SDS011;35570;48.218;16.326;2023-06-10T01:56:05;9.02;;;5.20;;
49678;SDS011;35570;48.218;16.326;2023-06-10T01:58:30;7.43;;;5.63;;
49678;SDS011;35570;48.218;16.326;2023-06-10T02:00:56;5.93;;;5.32;;
49678;SDS011;35570;48.218;16.326;2023-06-10T02:03:22;6.28;;;5.70;;
49678;SDS011;35570;48.218;16.326;2023-06-10T02:05:48;8.00;;;5.43;;
49678;SDS011;35570;48.218;16.326;2023-06-10T02:08:13;8.43;;;6.10;;
49678;SDS011;35570;48.218;16.326;2023-06-10T02:10:39;5.95;;;5.22;;
49678;SDS011;35570;48.218;16.326;2023-06-10T02:13:05;9.65;;;6.07;;
49678;SDS011;35570;48.218;16.326;2023-06-10T02:15:31;7.10;;;5.47;;
49678;SDS011;35570;48.218;16.326;2023-06-10T02:17:57;8.50;;;6.35;;
49678;SDS011;35570;48.218;16.326;2023-06-10T02:20:22;7.25;;;6.18;;
49678;SDS011;35570;48.218;16.326;2023-06-10T02:22:48;8.55;;;6.25;;
49678;SDS011;35570;48.218;16.326;2023-06-10T02:25:14;7.10;;;6.43;;
49678;SDS011;35570;48.218;16.326;2023-06-10T02:27:39;7.03;;;6.43;;
49678;SDS011;35570;48.218;16.326;2023-06-10T02:30:05;8.45;;;7.18;;
49678;SDS011;35570;48.218;16.326;2023-06-10T02:32:31;7.63;;;6.90;;
49678;SDS011;35570;48.218;16.326;2023-06-10T02:34:57;8.25;;;7.45;;
49678;SDS011;35570;48.218;16.326;2023-06-10T02:37:25;7.88;;;6.93;;
49678;SDS011;35570;48.218;16.326;2023-06-10T02:39:50;9.50;;;7.00;;
49678;SDS011;35570;48.218;16.326;2023-06-10T02:42:16;9.45;;;7.22;;
49678;SDS011;35570;48.218;16.326;2023-06-10T02:44:41;7.80;;;7.00;;
49678;SDS011;35570;48.218;16.326;2023-06-10T02:47:07;7.20;;;6.50;;
49678;SDS011;35570;48.218;16.326;2023-06-10T02:49:33;10.00;;;7.45;;
49678;SDS011;35570;48.218;16.326;2023-06-10T02:51:58;7.40;;;6.60;;
49678;SDS011;35570;48.218;16.326;2023-06-10T02:54:24;7.90;;;7.20;;
49678;SDS011;35570;48.218;16.326;2023-06-10T02:56:50;8.75;;;7.75;;
49678;SDS011;35570;48.218;16.326;2023-06-10T02:59:17;10.35;;;7.45;;
49678;SDS011;35570;48.218;16.326;2023-06-10T03:01:43;8.07;;;7.18;;
49678;SDS011;35570;48.218;16.326;2023-06-10T03:04:08;8.38;;;7.50;;
49678;SDS011;35570;48.218;16.326;2023-06-10T03:06:34;9.82;;;7.95;;
49678;SDS011;35570;48.218;16.326;2023-06-10T03:09:00;9.70;;;7.47;;
49678;SDS011;35570;48.218;16.326;2023-06-10T03:11:29;8.25;;;7.43;;
49678;SDS011;35570;48.218;16.326;2023-06-10T03:13:56;7.85;;;7.05;;
49678;SDS011;35570;48.218;16.326;2023-06-10T03:16:22;7.97;;;7.18;;
49678;SDS011;35570;48.218;16.326;2023-06-10T03:18:50;8.95;;;7.03;;
49678;SDS011;35570;48.218;16.326;2023-06-10T03:21:16;8.00;;;7.20;;
49678;SDS011;35570;48.218;16.326;2023-06-10T03:23:41;7.78;;;7.05;;
49678;SDS011;35570;48.218;16.326;2023-06-10T03:26:07;7.72;;;6.80;;
49678;SDS011;35570;48.218;16.326;2023-06-10T03:28:33;7.60;;;6.90;;
49678;SDS011;35570;48.218;16.326;2023-06-10T03:30:59;8.02;;;7.22;;
49678;SDS011;35570;48.218;16.326;2023-06-10T03:33:25;8.00;;;7.30;;
49678;SDS011;35570;48.218;16.326;2023-06-10T03:35:51;8.25;;;7.45;;
49678;SDS011;35570;48.218;16.326;2023-06-10T03:38:16;8.73;;;7.57;;
49678;SDS011;35570;48.218;16.326;2023-06-10T03:40:42;8.68;;;7.78;;
49678;SDS011;35570;48.218;16.326;2023-06-10T03:43:08;9.35;;;8.00;;
49678;SDS011;35570;48.218;16.326;2023-06-10T03:45:33;7.60;;;6.88;;
49678;SDS011;35570;48.218;16.326;2023-06-10T03:47:59;8.00;;;7.20;;
49678;SDS011;35570;48.218;16.326;2023-06-10T03:50:26;9.18;;;7.88;;
49678;SDS011;35570;48.218;16.326;2023-06-10T03:52:51;10.43;;;8.10;;
49678;SDS011;35570;48.218;16.326;2023-06-10T03:55:17;10.60;;;8.07;;
49678;SDS011;35570;48.218;16.326;2023-06-10T03:57:43;8.63;;;7.82;;
49678;SDS011;35570;48.218;16.326;2023-06-10T04:00:09;9.20;;;8.30;;
49678;SDS011;35570;48.218;16.326;2023-06-10T04:02:36;11.13;;;8.40;;
49678;SDS011;35570;48.218;16.326;2023-06-10T04:05:06;11.85;;;9.32;;
49678;SDS011;35570;48.218;16.326;2023-06-10T04:07:32;10.05;;;9.05;;
49678;SDS011;35570;48.218;16.326;2023-06-10T04:09:59;9.90;;;9.00;;
49678;SDS011;35570;48.218;16.326;2023-06-10T04:12:25;10.70;;;9.43;;
49678;SDS011;35570;48.218;16.326;2023-06-10T04:14:50;11.93;;;10.63;;
49678;SDS011;35570;48.218;16.326;2023-06-10T04:17:17;11.38;;;10.27;;
49678;SDS011;35570;48.218;16.326;2023-06-10T04:19:42;10.85;;;9.73;;
49678;SDS011;35570;48.218;16.326;2023-06-10T04:22:08;11.85;;;10.73;;
49678;SDS011;35570;48.218;16.326;2023-06-10T04:24:34;11.20;;;9.90;;
49678;SDS011;35570;48.218;16.326;2023-06-10T04:27:00;11.77;;;10.52;;
49678;SDS011;35570;48.218;16.326;2023-06-10T04:29:26;13.57;;;10.80;;
49678;SDS011;35570;48.218;16.326;2023-06-10T04:31:51;11.77;;;10.57;;
49678;SDS011;35570;48.218;16.326;2023-06-10T04:34:18;11.27;;;9.50;;
49678;SDS011;35570;48.218;16.326;2023-06-10T04:36:44;11.48;;;10.32;;
49678;SDS011;35570;48.218;16.326;2023-06-10T04:39:10;11.80;;;10.68;;
49678;SDS011;35570;48.218;16.326;2023-06-10T04:41:36;11.85;;;10.75;;
49678;SDS011;35570;48.218;16.326;2023-06-10T04:44:02;11.73;;;10.63;;
49678;SDS011;35570;48.218;16.326;2023-06-10T04:46:27;13.02;;;11.20;;
49678;SDS011;35570;48.218;16.326;2023-06-10T04:48:55;11.73;;;10.55;;
49678;SDS011;35570;48.218;16.326;2023-06-10T04:51:21;13.60;;;11.20;;
49678;SDS011;35570;48.218;16.326;2023-06-10T04:53:46;12.75;;;11.00;;
49678;SDS011;35570;48.218;16.326;2023-06-10T04:56:12;12.65;;;10.38;;
49678;SDS011;35570;48.218;16.326;2023-06-10T04:58:38;12.00;;;10.75;;
49678;SDS011;35570;48.218;16.326;2023-06-10T05:01:03;14.05;;;11.43;;
49678;SDS011;35570;48.218;16.326;2023-06-10T05:03:29;15.90;;;12.38;;
49678;SDS011;35570;48.218;16.326;2023-06-10T05:05:54;15.02;;;12.20;;
49678;SDS011;35570;48.218;16.326;2023-06-10T05:08:20;13.75;;;11.90;;
49678;SDS011;35570;48.218;16.326;2023-06-10T05:10:46;13.20;;;11.90;;
49678;SDS011;35570;48.218;16.326;2023-06-10T05:13:11;12.93;;;11.70;;
49678;SDS011;35570;48.218;16.326;2023-06-10T05:15:37;14.82;;;12.20;;
49678;SDS011;35570;48.218;16.326;2023-06-10T05:18:03;15.25;;;12.70;;
49678;SDS011;35570;48.218;16.326;2023-06-10T05:20:28;12.85;;;11.52;;
49678;SDS011;35570;48.218;16.326;2023-06-10T05:22:54;14.57;;;12.57;;
49678;SDS011;35570;48.218;16.326;2023-06-10T05:25:20;13.50;;;12.27;;
49678;SDS011;35570;48.218;16.326;2023-06-10T05:27:46;13.77;;;12.38;;
49678;SDS011;35570;48.218;16.326;2023-06-10T05:30:11;13.88;;;12.48;;
49678;SDS011;35570;48.218;16.326;2023-06-10T05:32:37;14.30;;;12.80;;
49678;SDS011;35570;48.218;16.326;2023-06-10T05:35:03;15.73;;;11.75;;
49678;SDS011;35570;48.218;16.326;2023-06-10T05:37:29;13.73;;;12.27;;
49678;SDS011;35570;48.218;16.326;2023-06-10T05:39:55;14.13;;;12.40;;
49678;SDS011;35570;48.218;16.326;2023-06-10T05:42:21;13.40;;;12.13;;
49678;SDS011;35570;48.218;16.326;2023-06-10T05:44:46;12.73;;;11.43;;
49678;SDS011;35570;48.218;16.326;2023-06-10T05:47:12;13.02;;;11.70;;
49678;SDS011;35570;48.218;16.326;2023-06-10T05:49:38;19.02;;;12.77;;
49678;SDS011;35570;48.218;16.326;2023-06-10T05:52:03;13.40;;;12.10;;
49678;SDS011;35570;48.218;16.326;2023-06-10T05:54:30;13.18;;;11.80;;
49678;SDS011;35570;48.218;16.326;2023-06-10T05:56:55;13.85;;;11.77;;
49678;SDS011;35570;48.218;16.326;2023-06-10T05:59:21;15.43;;;12.73;;
49678;SDS011;35570;48.218;16.326;2023-06-10T06:01:48;14.23;;;12.73;;
49678;SDS011;35570;48.218;16.326;2023-06-10T06:04:15;15.57;;;12.25;;
49678;SDS011;35570;48.218;16.326;2023-06-10T06:06:41;13.95;;;12.52;;
49678;SDS011;35570;48.218;16.326;2023-06-10T06:09:06;14.38;;;12.70;;
49678;SDS011;35570;48.218;16.326;2023-06-10T06:11:33;14.75;;;13.18;;
49678;SDS011;35570;48.218;16.326;2023-06-10T06:13:59;14.77;;;12.30;;
49678;SDS011;35570;48.218;16.326;2023-06-10T06:16:25;17.23;;;13.50;;
49678;SDS011;35570;48.218;16.326;2023-06-10T06:18:51;16.40;;;14.13;;
49678;SDS011;35570;48.218;16.326;2023-06-10T06:21:16;16.80;;;13.30;;
49678;SDS011;35570;48.218;16.326;2023-06-10T06:23:42;17.25;;;14.25;;
49678;SDS011;35570;48.218;16.326;2023-06-10T06:26:07;15.55;;;13.15;;
49678;SDS011;35570;48.218;16.326;2023-06-10T06:28:33;18.98;;;14.32;;
49678;SDS011;35570;48.218;16.326;2023-06-10T06:30:59;18.90;;;15.07;;
49678;SDS011;35570;48.218;16.326;2023-06-10T06:33:25;16.85;;;14.30;;
49678;SDS011;35570;48.218;16.326;2023-06-10T06:35:51;18.92;;;14.48;;
49678;SDS011;35570;48.218;16.326;2023-06-10T06:38:17;15.95;;;14.25;;
49678;SDS011;35570;48.218;16.326;2023-06-10T06:40:42;18.05;;;14.07;;
49678;SDS011;35570;48.218;16.326;2023-06-10T06:43:08;18.27;;;14.60;;
49678;SDS011;35570;48.218;16.326;2023-06-10T06:45:34;15.73;;;14.05;;
49678;SDS011;35570;48.218;16.326;2023-06-10T06:47:59;16.73;;;14.90;;
49678;SDS011;35570;48.218;16.326;2023-06-10T06:50:25;17.27;;;13.73;;
49678;SDS011;35570;48.218;16.326;2023-06-10T06:52:50;16.48;;;12.80;;
49678;SDS011;35570;48.218;16.326;2023-06-10T06:55:16;16.33;;;14.70;;
49678;SDS011;35570;48.218;16.326;2023-06-10T06:57:42;17.05;;;15.05;;
49678;SDS011;35570;48.218;16.326;2023-06-10T07:00:07;17.85;;;14.43;;
49678;SDS011;35570;48.218;16.326;2023-06-10T07:02:34;17.42;;;15.57;;
49678;SDS011;35570;48.218;16.326;2023-06-10T07:05:00;17.05;;;15.13;;
49678;SDS011;35570;48.218;16.326;2023-06-10T07:07:26;20.08;;;15.70;;
49678;SDS011;35570;48.218;16.326;2023-06-10T07:09:52;15.88;;;14.18;;
49678;SDS011;35570;48.218;16.326;2023-06-10T07:12:17;18.10;;;15.25;;
49678;SDS011;35570;48.218;16.326;2023-06-10T07:14:43;16.27;;;14.27;;
49678;SDS011;35570;48.218;16.326;2023-06-10T07:17:09;16.05;;;13.85;;
49678;SDS011;35570;48.218;16.326;2023-06-10T07:19:35;16.88;;;14.38;;
49678;SDS011;35570;48.218;16.326;2023-06-10T07:22:00;15.25;;;13.68;;
49678;SDS011;35570;48.218;16.326;2023-06-10T07:24:26;17.50;;;14.63;;
49678;SDS011;35570;48.218;16.326;2023-06-10T07:26:52;15.77;;;13.50;;
49678;SDS011;35570;48.218;16.326;2023-06-10T07:29:17;15.00;;;13.52;;
49678;SDS011;35570;48.218;16.326;2023-06-10T07:31:43;14.48;;;13.02;;
49678;SDS011;35570;48.218;16.326;2023-06-10T07:34:09;16.23;;;14.13;;
49678;SDS011;35570;48.218;16.326;2023-06-10T07:36:34;15.73;;;13.85;;
49678;SDS011;35570;48.218;16.326;2023-06-10T07:39:01;17.00;;;15.20;;
49678;SDS011;35570;48.218;16.326;2023-06-10T07:41:27;16.38;;;13.90;;
49678;SDS011;35570;48.218;16.326;2023-06-10T07:43:52;16.23;;;14.52;;
49678;SDS011;35570;48.218;16.326;2023-06-10T07:46:23;15.63;;;14.02;;
49678;SDS011;35570;48.218;16.326;2023-06-10T07:48:49;15.98;;;13.75;;
49678;SDS011;35570;48.218;16.326;2023-06-10T07:51:15;14.93;;;13.57;;
49678;SDS011;35570;48.218;16.326;2023-06-10T07:53:41;14.55;;;13.05;;
49678;SDS011;35570;48.218;16.326;2023-06-10T07:56:07;13.98;;;12.68;;
49678;SDS011;35570;48.218;16.326;2023-06-10T07:58:33;14.40;;;13.00;;
49678;SDS011;35570;48.218;16.326;2023-06-10T08:00:58;16.60;;;14.90;;
49678;SDS011;35570;48.218;16.326;2023-06-10T08:03:24;13.75;;;12.27;;
49678;SDS011;35570;48.218;16.326;2023-06-10T08:05:49;14.60;;;13.25;;
49678;SDS011;35570;48.218;16.326;2023-06-10T08:08:15;15.85;;;14.15;;
49678;SDS011;35570;48.218;16.326;2023-06-10T08:10:41;15.75;;;14.25;;
49678;SDS011;35570;48.218;16.326;2023-06-10T08:13:07;16.20;;;14.63;;
49678;SDS011;35570;48.218;16.326;2023-06-10T08:15:33;14.50;;;13.10;;
49678;SDS011;35570;48.218;16.326;2023-06-10T08:17:59;14.30;;;12.95;;
49678;SDS011;35570;48.218;16.326;2023-06-10T08:20:24;14.00;;;12.70;;
49678;SDS011;35570;48.218;16.326;2023-06-10T08:22:50;14.35;;;12.88;;
49678;SDS011;35570;48.218;16.326;2023-06-10T08:25:16;13.65;;;12.25;;
49678;SDS011;35570;48.218;16.326;2023-06-10T08:27:42;14.73;;;13.23;;
49678;SDS011;35570;48.218;16.326;2023-06-10T08:30:07;15.32;;;13.85;;
49678;SDS011;35570;48.218;16.326;2023-06-10T08:32:35;16.73;;;15.00;;
49678;SDS011;35570;48.218;16.326;2023-06-10T08:35:01;14.85;;;13.05;;
49678;SDS011;35570;48.218;16.326;2023-06-10T08:37:27;13.45;;;12.15;;
49678;SDS011;35570;48.218;16.326;2023-06-10T08:39:53;13.93;;;12.52;;
49678;SDS011;35570;48.218;16.326;2023-06-10T08:42:28;14.95;;;12.65;;
49678;SDS011;35570;48.218;16.326;2023-06-10T08:45:01;13.93;;;12.52;;
49678;SDS011;35570;48.218;16.326;2023-06-10T08:47:29;14.32;;;12.05;;
49678;SDS011;35570;48.218;16.326;2023-06-10T08:50:01;13.55;;;11.48;;
49678;SDS011;35570;48.218;16.326;2023-06-10T08:52:29;14.85;;;13.32;;
49678;SDS011;35570;48.218;16.326;2023-06-10T08:55:03;14.45;;;13.05;;
49678;SDS011;35570;48.218;16.326;2023-06-10T08:57:30;15.73;;;13.48;;
49678;SDS011;35570;48.218;16.326;2023-06-10T08:59:56;16.13;;;12.45;;
49678;SDS011;35570;48.218;16.326;2023-06-10T09:02:23;14.07;;;12.68;;
49678;SDS011;35570;48.218;16.326;2023-06-10T09:04:49;12.73;;;11.52;;
49678;SDS011;35570;48.218;16.326;2023-06-10T09:07:15;13.18;;;11.85;;
49678;SDS011;35570;48.218;16.326;2023-06-10T09:09:44;13.05;;;11.75;;
49678;SDS011;35570;48.218;16.326;2023-06-10T09:12:10;12.88;;;11.68;;
49678;SDS011;35570;48.218;16.326;2023-06-10T09:14:38;11.90;;;10.70;;
49678;SDS011;35570;48.218;16.326;2023-06-10T09:17:05;12.73;;;10.65;;
49678;SDS011;35570;48.218;16.326;2023-06-10T09:19:31;13.35;;;10.70;;
49678;SDS011;35570;48.218;16.326;2023-06-10T09:21:57;12.05;;;10.80;;
49678;SDS011;35570;48.218;16.326;2023-06-10T09:24:23;12.15;;;10.95;;
49678;SDS011;35570;48.218;16.326;2023-06-10T09:26:49;12.70;;;11.40;;
49678;SDS011;35570;48.218;16.326;2023-06-10T09:29:16;14.07;;;10.95;;
49678;SDS011;35570;48.218;16.326;2023-06-10T09:31:42;11.98;;;10.70;;
49678;SDS011;35570;48.218;16.326;2023-06-10T09:36:37;12.70;;;11.35;;
49678;SDS011;35570;48.218;16.326;2023-06-10T09:39:04;11.80;;;10.60;;
49678;SDS011;35570;48.218;16.326;2023-06-10T09:41:41;12.57;;;11.23;;
49678;SDS011;35570;48.218;16.326;2023-06-10T09:44:14;12.52;;;11.32;;
49678;SDS011;35570;48.218;16.326;2023-06-10T09:46:47;12.23;;;10.85;;
49678;SDS011;35570;48.218;16.326;2023-06-10T09:49:16;15.48;;;12.10;;
49678;SDS011;35570;48.218;16.326;2023-06-10T09:51:53;15.32;;;11.45;;
49678;SDS011;35570;48.218;16.326;2023-06-10T09:54:19;10.82;;;9.77;;
49678;SDS011;35570;48.218;16.326;2023-06-10T09:56:47;11.38;;;10.18;;
49678;SDS011;35570;48.218;16.326;2023-06-10T09:59:13;11.82;;;10.68;;
49678;SDS011;35570;48.218;16.326;2023-06-10T10:01:39;14.02;;;11.38;;
49678;SDS011;35570;48.218;16.326;2023-06-10T10:04:05;12.40;;;11.20;;
49678;SDS011;35570;48.218;16.326;2023-06-10T10:06:31;13.23;;;10.80;;
49678;SDS011;35570;48.218;16.326;2023-06-10T10:09:02;12.40;;;11.15;;
49678;SDS011;35570;48.218;16.326;2023-06-10T10:11:28;13.77;;;11.35;;
49678;SDS011;35570;48.218;16.326;2023-06-10T10:13:56;11.52;;;10.43;;
49678;SDS011;35570;48.218;16.326;2023-06-10T10:16:41;11.25;;;10.13;;
49678;SDS011;35570;48.218;16.326;2023-06-10T10:19:10;9.38;;;8.35;;
49678;SDS011;35570;48.218;16.326;2023-06-10T10:21:45;10.52;;;9.45;;
49678;SDS011;35570;48.218;16.326;2023-06-10T10:24:31;10.63;;;9.50;;
49678;SDS011;35570;48.218;16.326;2023-06-10T10:27:01;10.43;;;9.45;;
49678;SDS011;35570;48.218;16.326;2023-06-10T10:29:41;12.82;;;9.32;;
49678;SDS011;35570;48.218;16.326;2023-06-10T10:32:10;9.73;;;8.82;;
49678;SDS011;35570;48.218;16.326;2023-06-10T10:37:43;9.40;;;8.50;;
49678;SDS011;35570;48.218;16.326;2023-06-10T10:40:10;10.00;;;8.20;;
49678;SDS011;35570;48.218;16.326;2023-06-10T10:42:36;9.02;;;8.13;;
49678;SDS011;35570;48.218;16.326;2023-06-10T10:45:03;9.75;;;7.82;;
49678;SDS011;35570;48.218;16.326;2023-06-10T10:47:30;11.95;;;8.75;;
49678;SDS011;35570;48.218;16.326;2023-06-10T10:49:58;9.32;;;8.43;;
49678;SDS011;35570;48.218;16.326;2023-06-10T10:52:24;8.38;;;7.57;;
49678;SDS011;35570;48.218;16.326;2023-06-10T10:54:52;8.40;;;7.60;;
49678;SDS011;35570;48.218;16.326;2023-06-10T10:57:20;8.02;;;7.22;;
49678;SDS011;35570;48.218;16.326;2023-06-10T11:02:33;9.23;;;7.43;;
49678;SDS011;35570;48.218;16.326;2023-06-10T11:05:00;8.85;;;7.20;;
49678;SDS011;35570;48.218;16.326;2023-06-10T11:07:26;7.90;;;6.95;;
49678;SDS011;35570;48.218;16.326;2023-06-10T11:12:40;9.73;;;7.30;;
49678;SDS011;35570;48.218;16.326;2023-06-10T11:15:09;8.10;;;7.30;;
49678;SDS011;35570;48.218;16.326;2023-06-10T11:17:35;7.97;;;7.05;;
49678;SDS011;35570;48.218;16.326;2023-06-10T11:20:00;7.85;;;6.93;;
49678;SDS011;35570;48.218;16.326;2023-06-10T11:22:26;8.25;;;6.57;;
49678;SDS011;35570;48.218;16.326;2023-06-10T11:24:52;8.43;;;5.95;;
49678;SDS011;35570;48.218;16.326;2023-06-10T11:27:18;8.23;;;7.30;;
49678;SDS011;35570;48.218;16.326;2023-06-10T11:32:28;9.48;;;7.43;;
49678;SDS011;35570;48.218;16.326;2023-06-10T11:34:58;7.72;;;6.93;;
49678;SDS011;35570;48.218;16.326;2023-06-10T11:37:25;10.43;;;7.70;;
49678;SDS011;35570;48.218;16.326;2023-06-10T11:39:54;8.13;;;7.20;;
49678;SDS011;35570;48.218;16.326;2023-06-10T11:42:20;7.70;;;6.90;;
49678;SDS011;35570;48.218;16.326;2023-06-10T11:44:49;7.45;;;6.75;;
49678;SDS011;35570;48.218;16.326;2023-06-10T11:47:18;6.82;;;6.22;;
49678;SDS011;35570;48.218;16.326;2023-06-10T11:49:45;7.70;;;6.40;;
49678;SDS011;35570;48.218;16.326;2023-06-10T11:52:11;6.68;;;6.07;;
49678;SDS011;35570;48.218;16.326;2023-06-10T11:54:37;7.07;;;6.47;;
49678;SDS011;35570;48.218;16.326;2023-06-10T11:57:03;8.52;;;6.95;;
49678;SDS011;35570;48.218;16.326;2023-06-10T11:59:30;7.38;;;5.95;;
49678;SDS011;35570;48.218;16.326;2023-06-10T12:01:56;7.80;;;6.03;;
49678;SDS011;35570;48.218;16.326;2023-06-10T12:04:22;8.48;;;6.55;;
49678;SDS011;35570;48.218;16.326;2023-06-10T12:06:48;6.97;;;5.93;;
49678;SDS011;35570;48.218;16.326;2023-06-10T12:11:43;6.65;;;6.05;;
49678;SDS011;35570;48.218;16.326;2023-06-10T12:14:10;8.57;;;6.55;;
49678;SDS011;35570;48.218;16.326;2023-06-10T12:16:36;6.70;;;6.07;;
49678;SDS011;35570;48.218;16.326;2023-06-10T12:19:02;7.10;;;5.65;;
49678;SDS011;35570;48.218;16.326;2023-06-10T12:21:29;10.73;;;6.25;;
49678;SDS011;35570;48.218;16.326;2023-06-10T12:26:40;6.82;;;5.43;;
49678;SDS011;35570;48.218;16.326;2023-06-10T12:29:17;6.47;;;5.82;;
49678;SDS011;35570;48.218;16.326;2023-06-10T12:32:03;5.60;;;5.07;;
49678;SDS011;35570;48.218;16.326;2023-06-10T12:34:39;7.05;;;5.35;;
49678;SDS011;35570;48.218;16.326;2023-06-10T12:37:06;6.40;;;5.80;;
49678;SDS011;35570;48.218;16.326;2023-06-10T12:39:38;6.18;;;4.70;;
49678;SDS011;35570;48.218;16.326;2023-06-10T12:42:04;6.47;;;5.50;;
49678;SDS011;35570;48.218;16.326;2023-06-10T12:44:31;6.80;;;5.28;;
49678;SDS011;35570;48.218;16.326;2023-06-10T12:46:58;7.20;;;5.40;;
49678;SDS011;35570;48.218;16.326;2023-06-10T12:49:24;6.60;;;6.00;;
49678;SDS011;35570;48.218;16.326;2023-06-10T12:51:51;7.45;;;6.75;;
49678;SDS011;35570;48.218;16.326;2023-06-10T12:54:17;8.32;;;7.40;;
49678;SDS011;35570;48.218;16.326;2023-06-10T12:56:43;10.48;;;7.55;;
49678;SDS011;35570;48.218;16.326;2023-06-10T12:59:08;8.80;;;7.90;;
49678;SDS011;35570;48.218;16.326;2023-06-10T13:01:35;9.30;;;8.00;;
49678;SDS011;35570;48.218;16.326;2023-06-10T13:04:02;8.75;;;7.82;;
49678;SDS011;35570;48.218;16.326;2023-06-10T13:06:31;7.90;;;7.15;;
49678;SDS011;35570;48.218;16.326;2023-06-10T13:09:01;9.25;;;7.43;;
49678;SDS011;35570;48.218;16.326;2023-06-10T13:11:27;9.07;;;8.18;;
49678;SDS011;35570;48.218;16.326;2023-06-10T13:13:53;13.90;;;11.10;;
49678;SDS011;35570;48.218;16.326;2023-06-10T13:16:19;15.70;;;11.00;;
49678;SDS011;35570;48.218;16.326;2023-06-10T13:18:44;10.43;;;9.43;;
49678;SDS011;35570;48.218;16.326;2023-06-10T13:21:11;8.43;;;7.72;;
49678;SDS011;35570;48.218;16.326;2023-06-10T13:23:36;9.50;;;8.35;;
49678;SDS011;35570;48.218;16.326;2023-06-10T13:26:02;9.85;;;7.88;;
49678;SDS011;35570;48.218;16.326;2023-06-10T13:28:28;9.68;;;7.43;;
49678;SDS011;35570;48.218;16.326;2023-06-10T13:30:53;7.80;;;7.10;;
49678;SDS011;35570;48.218;16.326;2023-06-10T13:33:19;8.30;;;7.50;;
49678;SDS011;35570;48.218;16.326;2023-06-10T13:35:46;7.85;;;7.15;;
49678;SDS011;35570;48.218;16.326;2023-06-10T13:38:11;6.80;;;6.15;;
49678;SDS011;35570;48.218;16.326;2023-06-10T13:40:37;10.43;;;6.90;;
49678;SDS011;35570;48.218;16.326;2023-06-10T13:43:03;7.38;;;6.55;;
49678;SDS011;35570;48.218;16.326;2023-06-10T13:45:28;7.13;;;6.53;;
49678;SDS011;35570;48.218;16.326;2023-06-10T13:47:54;7.32;;;6.55;;
49678;SDS011;35570;48.218;16.326;2023-06-10T13:50:20;7.10;;;6.45;;
49678;SDS011;35570;48.218;16.326;2023-06-10T13:52:45;7.65;;;6.88;;
49678;SDS011;35570;48.218;16.326;2023-06-10T13:55:11;7.35;;;6.65;;
49678;SDS011;35570;48.218;16.326;2023-06-10T13:57:36;8.73;;;7.95;;
49678;SDS011;35570;48.218;16.326;2023-06-10T14:00:02;8.55;;;7.75;;
49678;SDS011;35570;48.218;16.326;2023-06-10T14:02:28;8.10;;;7.40;;
49678;SDS011;35570;48.218;16.326;2023-06-10T14:04:54;9.23;;;7.78;;
49678;SDS011;35570;48.218;16.326;2023-06-10T14:07:20;8.00;;;7.20;;
49678;SDS011;35570;48.218;16.326;2023-06-10T14:09:45;7.38;;;6.75;;
49678;SDS011;35570;48.218;16.326;2023-06-10T14:12:11;7.03;;;6.38;;
49678;SDS011;35570;48.218;16.326;2023-06-10T14:14:37;7.00;;;6.32;;
49678;SDS011;35570;48.218;16.326;2023-06-10T14:17:03;7.20;;;6.60;;
49678;SDS011;35570;48.218;16.326;2023-06-10T14:19:30;6.95;;;6.35;;
49678;SDS011;35570;48.218;16.326;2023-06-10T14:21:55;7.40;;;6.70;;
49678;SDS011;35570;48.218;16.326;2023-06-10T14:24:21;7.47;;;6.78;;
49678;SDS011;35570;48.218;16.326;2023-06-10T14:26:47;7.72;;;6.93;;
49678;SDS011;35570;48.218;16.326;2023-06-10T14:29:12;7.88;;;6.90;;
49678;SDS011;35570;48.218;16.326;2023-06-10T14:31:43;7.47;;;6.78;;
49678;SDS011;35570;48.218;16.326;2023-06-10T14:34:08;7.57;;;6.88;;
49678;SDS011;35570;48.218;16.326;2023-06-10T14:36:34;7.40;;;6.68;;
49678;SDS011;35570;48.218;16.326;2023-06-10T14:39:00;6.90;;;6.20;;
49678;SDS011;35570;48.218;16.326;2023-06-10T14:41:25;8.02;;;6.25;;
49678;SDS011;35570;48.218;16.326;2023-06-10T14:43:51;6.63;;;6.03;;
49678;SDS011;35570;48.218;16.326;2023-06-10T14:46:17;7.13;;;6.00;;